Time;durP1;ratioP1;P1;durP2;ratioP2;P2;SDS_P1;SDS_P2;PMS_P1;PMS_P2;Temp;Humidity;BMP_temperature;BMP_pressure;BME280_temperature;BME280_humidity;BME280_pressure;Samples;Min_cycle;Max_cycle;Signal;HPM_P1;HPM_P2
2021/10/29 00:03:09;;;;;;;27.10;13.98;;;8.90;99.90;;;;;;6762226;88;20617;-77
2021/10/29 00:13:10;;;;;;;30.52;14.48;;;8.90;99.90;;;;;;6764926;88;20692;-77
2021/10/29 00:23:11;;;;;;;22.13;11.20;;;8.90;99.90;;;;;;6763704;88;20195;-77
2021/10/29 00:33:12;;;;;;;21.35;10.77;;;9.00;99.90;;;;;;6764613;88;20216;-78
2021/10/29 00:43:12;;;;;;;23.13;10.63;;;8.90;99.90;;;;;;6763842;88;20211;-78
2021/10/29 00:53:13;;;;;;;26.92;12.77;;;8.90;99.90;;;;;;6763818;88;21055;-77
2021/10/29 01:03:14;;;;;;;27.60;11.15;;;8.90;99.90;;;;;;6764634;88;20330;-77
2021/10/29 01:13:14;;;;;;;26.17;11.93;;;8.80;99.90;;;;;;6764463;88;20189;-79
2021/10/29 01:23:15;;;;;;;29.70;13.70;;;8.80;99.90;;;;;;6763448;88;20505;-79
2021/10/29 01:33:15;;;;;;;25.77;12.25;;;8.80;99.90;;;;;;6764006;88;20344;-79
2021/10/29 01:43:16;;;;;;;26.92;12.85;;;8.70;99.90;;;;;;6763934;88;20698;-79
2021/10/29 01:53:17;;;;;;;29.27;12.02;;;8.80;99.90;;;;;;6763843;88;20710;-80
2021/10/29 02:03:17;;;;;;;31.33;13.77;;;8.70;99.90;;;;;;6763495;88;21089;-79
2021/10/29 02:13:19;;;;;;;29.45;13.38;;;8.80;99.90;;;;;;6763083;88;20177;-79
2021/10/29 02:23:19;;;;;;;26.98;12.77;;;8.80;99.90;;;;;;6758982;88;20727;-76
2021/10/29 02:33:20;;;;;;;22.67;10.90;;;8.80;99.90;;;;;;6763947;88;20196;-78
2021/10/29 02:43:21;;;;;;;30.77;13.80;;;8.80;99.90;;;;;;6763027;88;20496;-77
2021/10/29 02:53:22;;;;;;;30.75;14.20;;;8.70;99.90;;;;;;6759543;88;20305;-77
2021/10/29 03:03:23;;;;;;;32.17;14.00;;;8.60;99.90;;;;;;6762188;88;20210;-77
2021/10/29 03:13:24;;;;;;;28.83;13.32;;;8.70;99.90;;;;;;6759264;77;20318;-76
2021/10/29 03:23:25;;;;;;;29.37;13.80;;;8.70;99.90;;;;;;6729561;88;20192;-77
2021/10/29 03:33:25;;;;;;;30.17;13.30;;;8.70;99.90;;;;;;6729190;88;20207;-78
2021/10/29 03:43:29;;;;;;;26.08;12.60;;;8.70;99.90;;;;;;6727032;88;20664;-77
2021/10/29 04:03:36;;;;;;;;;;;8.60;99.90;;;;;;6731682;88;20646;-75
2021/10/29 04:13:38;;;;;;;27.35;12.85;;;8.70;99.90;;;;;;6728016;88;20069;-76
2021/10/29 04:23:39;;;;;;;23.35;11.48;;;8.80;99.90;;;;;;6730816;88;20318;-76
2021/10/29 04:33:39;;;;;;;25.27;12.02;;;8.80;99.90;;;;;;6729683;88;20235;-76
2021/10/29 04:43:40;;;;;;;22.65;11.75;;;8.90;99.90;;;;;;6732293;88;20221;-76
2021/10/29 04:53:40;;;;;;;24.25;11.27;;;9.00;99.90;;;;;;6728729;88;20312;-77
2021/10/29 05:03:42;;;;;;;20.20;10.55;;;9.00;99.90;;;;;;6727478;88;20193;-76
2021/10/29 05:13:42;;;;;;;22.50;10.00;;;9.10;99.90;;;;;;6726360;88;20261;-76
2021/10/29 05:23:43;;;;;;;20.80;10.18;;;9.10;99.90;;;;;;6721183;88;20182;-77
2021/10/29 05:33:43;;;;;;;21.62;10.45;;;9.10;99.90;;;;;;6720614;88;20715;-77
2021/10/29 05:43:44;;;;;;;23.62;10.45;;;9.10;99.90;;;;;;6719633;88;20700;-75
2021/10/29 05:54:08;;;;;;;22.20;10.25;;;9.10;99.90;;;;;;6721953;88;20211;-76
2021/10/29 06:04:06;;;;;;;21.00;10.77;;;9.00;99.90;;;;;;6725563;88;20178;-77
2021/10/29 06:14:06;;;;;;;23.90;11.40;;;8.90;99.90;;;;;;6731565;88;20232;-77
2021/10/29 06:24:17;;;;;;;24.00;11.52;;;8.90;99.90;;;;;;6728773;88;21018;-77
2021/10/29 06:34:18;;;;;;;25.90;12.15;;;8.80;99.90;;;;;;6720749;88;20173;-76
2021/10/29 06:44:27;;;;;;;25.15;11.00;;;8.70;99.90;;;;;;6729089;88;20210;-77
2021/10/29 07:46:04;;;;;;;17.77;8.23;;;9.40;99.90;;;;;;6726482;88;20181;-76
2021/10/29 07:56:06;;;;;;;15.77;7.25;;;9.70;99.90;;;;;;6724777;88;20238;-76
2021/10/29 08:06:07;;;;;;;19.85;9.25;;;9.90;99.90;;;;;;6725066;88;20222;-77
2021/10/29 08:16:07;;;;;;;17.12;8.52;;;9.90;99.90;;;;;;6722738;88;20252;-77
2021/10/29 08:26:11;;;;;;;22.37;8.73;;;9.90;99.90;;;;;;6717660;88;20209;-78
2021/10/29 08:36:12;;;;;;;18.95;9.20;;;10.20;99.90;;;;;;6719426;88;20309;-77
2021/10/29 08:46:14;;;;;;;18.73;9.05;;;10.60;99.90;;;;;;6721617;88;20259;-77
2021/10/29 08:56:15;;;;;;;16.20;8.55;;;10.60;99.90;;;;;;6719409;88;20341;-77
2021/10/29 09:06:44;;;;;;;20.20;8.88;;;10.70;99.90;;;;;;6718849;88;20274;-77
2021/10/29 09:17:09;;;;;;;15.65;8.38;;;10.70;99.90;;;;;;6716547;88;20193;-77
2021/10/29 09:37:37;;;;;;;18.87;7.75;;;12.30;99.90;;;;;;6719245;88;20190;-76
2021/10/29 09:47:38;;;;;;;10.25;5.78;;;12.80;99.90;;;;;;6716916;88;20181;-75
2021/10/29 09:57:39;;;;;;;9.55;5.72;;;13.20;99.90;;;;;;6727969;88;21030;-75
2021/10/29 10:07:43;;;;;;;10.98;6.12;;;13.70;99.90;;;;;;6721447;88;20223;-76
2021/10/29 10:17:43;;;;;;;9.52;5.37;;;13.90;99.90;;;;;;6718349;88;20297;-76
2021/10/29 10:28:30;;;;;;;7.87;4.55;;;14.10;99.90;;;;;;6717294;88;20296;-76
2021/10/29 10:59:36;;;;;;;9.00;5.35;;;15.60;99.90;;;;;;6721271;88;20177;-77
2021/10/29 11:10:10;;;;;;;9.88;4.95;;;15.60;99.90;;;;;;6727796;88;20178;-76
2021/10/29 11:20:12;;;;;;;7.32;3.60;;;16.00;99.90;;;;;;6724243;88;20276;-77
2021/10/29 11:30:13;;;;;;;8.02;3.55;;;16.00;99.90;;;;;;6726308;88;20172;-77
2021/10/29 11:40:14;;;;;;;6.75;3.92;;;16.30;99.90;;;;;;6721163;88;20257;-77
2021/10/29 11:50:14;;;;;;;5.10;2.87;;;17.00;99.90;;;;;;6719436;88;20240;-77
2021/10/29 12:00:29;;;;;;;7.07;3.53;;;17.30;99.90;;;;;;6719840;88;20178;-77
2021/10/29 12:10:30;;;;;;;5.62;3.15;;;17.30;99.90;;;;;;6724278;88;20221;-77
2021/10/29 12:20:39;;;;;;;5.97;2.90;;;17.70;99.90;;;;;;6718742;88;20266;-77
2021/10/29 13:01:35;;;;;;;3.75;2.53;;;18.50;99.90;;;;;;6723666;88;20196;-77
2021/10/29 13:11:37;;;;;;;4.50;2.45;;;19.20;99.90;;;;;;6719261;88;20350;-76
2021/10/29 13:22:31;;;;;;;5.12;2.60;;;19.10;99.90;;;;;;6720289;88;20228;-77
2021/10/29 13:53:02;;;;;;;3.58;2.25;;;19.30;99.90;;;;;;6723528;88;20205;-76
2021/10/29 14:03:37;;;;;;;5.07;2.33;;;20.20;99.90;;;;;;6725513;88;20198;-76
2021/10/29 14:34:20;;;;;;;5.57;2.10;;;19.30;99.90;;;;;;6722847;88;20665;-75
2021/10/29 14:44:26;;;;;;;6.62;2.70;;;18.90;99.90;;;;;;6715894;88;20744;-75
2021/10/29 15:25:35;;;;;;;5.65;2.58;;;18.10;99.90;;;;;;6718844;88;20180;-77
2021/10/29 15:45:56;;;;;;;5.35;3.45;;;16.90;99.90;;;;;;6729157;88;20688;-75
2021/10/29 15:56:04;;;;;;;6.25;3.35;;;16.40;99.90;;;;;;6715349;88;20248;-76
2021/10/29 16:26:49;;;;;;;7.18;3.10;;;15.60;99.90;;;;;;6720642;88;20232;-73
2021/10/29 16:36:51;;;;;;;5.87;3.50;;;15.40;99.90;;;;;;6715073;88;20215;-75
2021/10/29 16:46:51;;;;;;;10.68;3.90;;;15.20;99.90;;;;;;6726319;88;20237;-74
2021/10/29 16:56:52;;;;;;;8.88;3.00;;;15.00;99.90;;;;;;6709331;88;21051;-74
2021/10/29 17:06:53;;;;;;;7.23;3.83;;;14.90;99.90;;;;;;6716126;88;20609;-74
2021/10/29 17:16:54;;;;;;;7.18;4.00;;;14.70;99.90;;;;;;6710236;88;21132;-74
2021/10/29 17:26:55;;;;;;;8.32;3.97;;;14.60;99.90;;;;;;6726928;88;20188;-75
2021/10/29 17:36:55;;;;;;;7.32;4.45;;;14.50;99.90;;;;;;6726941;88;20223;-75
2021/10/29 17:46:57;;;;;;;6.93;4.30;;;14.40;99.90;;;;;;6721752;88;20761;-74
2021/10/29 17:56:58;;;;;;;10.07;4.95;;;14.30;99.90;;;;;;6715789;88;20313;-75
2021/10/29 18:07:00;;;;;;;7.72;4.60;;;14.10;99.90;;;;;;6721148;88;20209;-75
2021/10/29 18:17:01;;;;;;;7.30;4.32;;;14.10;99.90;;;;;;6720686;88;20878;-74
2021/10/29 18:27:02;;;;;;;10.90;4.85;;;14.00;99.90;;;;;;6718159;88;20276;-74
2021/10/29 18:37:04;;;;;;;9.55;4.97;;;13.80;99.90;;;;;;6713061;88;20185;-74
2021/10/29 18:47:05;;;;;;;10.02;5.50;;;13.70;99.90;;;;;;6716106;88;20210;-75
2021/10/29 18:57:07;;;;;;;8.77;5.20;;;13.70;99.90;;;;;;6722298;88;20172;-74
2021/10/29 19:07:08;;;;;;;11.65;5.80;;;13.70;99.90;;;;;;6716148;88;20193;-75
2021/10/29 19:17:09;;;;;;;14.38;5.78;;;13.60;99.90;;;;;;6715339;88;20228;-74
2021/10/29 19:27:09;;;;;;;10.00;5.20;;;13.50;99.90;;;;;;6713270;88;20252;-76
2021/10/29 19:37:18;;;;;;;11.05;5.60;;;13.40;99.90;;;;;;6714677;88;20533;-75
2021/10/29 19:47:19;;;;;;;9.05;4.95;;;13.40;99.90;;;;;;6707650;88;20203;-75
2021/10/29 20:07:36;;;;;;;7.50;4.77;;;13.30;99.90;;;;;;6709305;88;20206;-74
2021/10/29 20:17:39;;;;;;;9.75;5.28;;;13.30;99.90;;;;;;6709281;88;20623;-75
2021/10/29 20:27:40;;;;;;;10.15;5.32;;;13.30;99.90;;;;;;6713227;88;20182;-75
2021/10/29 20:37:41;;;;;;;12.25;5.60;;;13.20;99.90;;;;;;6710589;88;20197;-75
2021/10/29 20:47:42;;;;;;;9.35;5.40;;;13.20;99.90;;;;;;6719330;88;20215;-76
2021/10/29 20:57:43;;;;;;;11.57;5.45;;;13.10;99.90;;;;;;6717710;88;20169;-76
2021/10/29 21:07:44;;;;;;;9.90;5.75;;;13.00;99.90;;;;;;6723679;88;20846;-76
2021/10/29 21:18:25;;;;;;;12.23;5.95;;;12.90;99.90;;;;;;6744360;77;20171;-80
2021/10/29 21:28:26;;;;;;;11.73;6.22;;;12.90;99.90;;;;;;6762044;88;20192;-80
2021/10/29 21:38:27;;;;;;;12.70;6.45;;;12.70;99.90;;;;;;6769430;87;20194;-80
2021/10/29 21:48:28;;;;;;;12.95;6.90;;;12.60;99.90;;;;;;6768500;88;20609;-80
2021/10/29 21:58:29;;;;;;;13.93;6.70;;;12.40;99.90;;;;;;6768262;88;20187;-79
2021/10/29 22:08:31;;;;;;;13.48;6.50;;;12.40;99.90;;;;;;6768111;88;20197;-79
2021/10/29 22:18:31;;;;;;;12.40;5.82;;;12.40;99.90;;;;;;6767728;87;20235;-79
2021/10/29 22:28:35;;;;;;;9.35;5.65;;;12.50;99.90;;;;;;6765505;87;20217;-79
2021/10/29 22:38:36;;;;;;;10.68;5.75;;;12.50;99.90;;;;;;6767711;88;20196;-80
2021/10/29 22:48:36;;;;;;;10.63;5.62;;;12.50;99.90;;;;;;6763372;88;20192;-80
2021/10/29 22:58:41;;;;;;;10.52;5.50;;;12.50;99.90;;;;;;6761554;88;20639;-80
2021/10/29 23:08:42;;;;;;;10.98;5.75;;;12.30;99.90;;;;;;6766452;87;20225;-79
2021/10/29 23:18:42;;;;;;;11.88;6.10;;;12.20;99.90;;;;;;6767601;87;20330;-80
2021/10/29 23:28:45;;;;;;;10.88;5.53;;;12.10;99.90;;;;;;6765692;88;20191;-79
2021/10/29 23:38:47;;;;;;;9.95;5.68;;;12.10;99.90;;;;;;6772367;88;20199;-79
2021/10/29 23:48:49;;;;;;;12.50;5.20;;;12.10;99.90;;;;;;6770387;87;20187;-81
2021/10/29 23:58:50;;;;;;;12.30;5.70;;;12.10;99.90;;;;;;6772400;88;20211;-80
